East Gull Lake, Minnesota
Current Conditions -  °F | °C
As of 6:14 PM on Friday 19 Dec 2014 (Local Time) from KBRD Reporting Station
Haze Haze  
Wind Chill: 15°   Ceiling: 400
Heat Index: 25°   Visibility: 1.7mi
Dew Point: 23°   Wind: 10mph
Humidity: 92%   Direction: 150°SSE
Pressure: 30.13"   Gusts: NA
Location:  46.2895°N, 94.0683°W
Report Text: KBRD 200014Z AUTO 15009KT 1 3/4SM BR OVC004 M04/M05 A3013 RMK AO2 I1000 T10391050
Loading
Personal Weather Stations






























Interactive Weather Map New forecast layout! Learn more

10-Day Weather Forecast

Advertisements
Track Severe Weather on mobile